Time;durP1;ratioP1;P1;durP2;ratioP2;P2;SDS_P1;SDS_P2;PMS_P1;PMS_P2;Temp;Humidity;BMP_temperature;BMP_pressure;BME280_temperature;BME280_humidity;BME280_pressure;Samples;Min_cycle;Max_cycle;Signal;HPM_P1;HPM_P2
2021/09/20 00:00:13;;;;;;;2.40;0.77;;;16.40;99.30;;;;;;5090149;28;20111;-76
2021/09/20 00:02:39;;;;;;;1.60;0.70;;;16.40;99.30;;;;;;5092012;28;20020;-76
2021/09/20 00:05:07;;;;;;;0.98;0.70;;;16.40;99.40;;;;;;5090516;28;20107;-76
2021/09/20 00:07:33;;;;;;;1.73;0.70;;;16.40;99.40;;;;;;5092313;28;20035;-76
2021/09/20 00:09:59;;;;;;;0.50;0.50;;;16.50;99.30;;;;;;5090828;28;20111;-76
2021/09/20 00:12:24;;;;;;;1.73;0.50;;;16.40;99.20;;;;;;5094684;28;20183;-74
2021/09/20 00:14:50;;;;;;;1.17;0.50;;;16.40;99.10;;;;;;5093632;28;20419;-74
2021/09/20 00:17:15;;;;;;;1.33;0.70;;;16.40;99.20;;;;;;5093833;28;20031;-72
2021/09/20 00:19:41;;;;;;;0.55;0.50;;;16.40;99.10;;;;;;5095552;28;20028;-72
2021/09/20 00:22:07;;;;;;;0.77;0.70;;;16.30;99.20;;;;;;5094174;28;20020;-74
2021/09/20 00:24:33;;;;;;;0.80;0.70;;;16.40;99.30;;;;;;5096030;28;20487;-73
2021/09/20 00:26:58;;;;;;;1.00;0.73;;;16.40;99.40;;;;;;5093908;28;20039;-74
2021/09/20 00:29:24;;;;;;;0.60;0.60;;;16.40;99.50;;;;;;5093975;28;20444;-73
2021/09/20 00:31:49;;;;;;;1.58;0.70;;;16.40;99.50;;;;;;5093453;28;20031;-72
2021/09/20 00:34:15;;;;;;;4.13;1.10;;;16.40;99.30;;;;;;5093529;28;20077;-74
2021/09/20 00:36:41;;;;;;;1.00;0.90;;;16.40;99.20;;;;;;5095154;28;20023;-74
2021/09/20 00:39:07;;;;;;;1.30;0.95;;;16.40;99.10;;;;;;5093503;28;20020;-74
2021/09/20 00:41:32;;;;;;;1.30;0.93;;;16.50;98.90;;;;;;5094364;28;20050;-74
2021/09/20 00:43:58;;;;;;;0.88;0.73;;;16.50;98.80;;;;;;5093637;28;20030;-74
2021/09/20 00:46:23;;;;;;;3.00;1.13;;;16.50;98.80;;;;;;5094051;28;20028;-74
2021/09/20 00:48:49;;;;;;;2.28;1.30;;;16.50;98.70;;;;;;5093347;28;20035;-75
2021/09/20 00:51:15;;;;;;;1.05;0.88;;;16.50;98.60;;;;;;5093487;28;20024;-74
2021/09/20 00:53:41;;;;;;;3.55;1.20;;;16.50;98.70;;;;;;5093762;28;20089;-73
2021/09/20 00:56:07;;;;;;;2.28;1.30;;;16.50;98.80;;;;;;5092690;28;20125;-74
2021/09/20 00:58:33;;;;;;;1.92;1.35;;;16.50;98.70;;;;;;5094974;28;20164;-74
2021/09/20 01:01:00;;;;;;;1.40;1.23;;;16.50;98.70;;;;;;5094393;28;20060;-74
2021/09/20 01:03:26;;;;;;;2.53;1.23;;;16.50;98.60;;;;;;5094089;28;20085;-74
2021/09/20 01:05:52;;;;;;;1.08;0.98;;;16.50;98.60;;;;;;5093007;28;20024;-74
2021/09/20 01:08:18;;;;;;;2.05;1.30;;;16.50;98.60;;;;;;5093530;28;20020;-73
2021/09/20 01:10:43;;;;;;;2.00;1.40;;;16.50;98.50;;;;;;5094393;28;20020;-73
2021/09/20 01:13:09;;;;;;;1.50;1.30;;;16.40;98.70;;;;;;5092672;28;20105;-74
2021/09/20 01:15:35;;;;;;;2.10;1.25;;;16.40;99.00;;;;;;5092868;28;20161;-74
2021/09/20 01:18:01;;;;;;;2.03;1.20;;;16.40;99.00;;;;;;5093475;28;20024;-74
2021/09/20 01:20:27;;;;;;;2.13;1.30;;;16.40;99.00;;;;;;5094354;28;20020;-74
2021/09/20 01:23:03;;;;;;;1.35;1.23;;;16.40;99.10;;;;;;5093595;28;20022;-74
2021/09/20 01:25:29;;;;;;;2.58;1.38;;;16.30;99.30;;;;;;5094828;28;20032;-75
2021/09/20 01:27:55;;;;;;;1.73;1.40;;;16.30;99.50;;;;;;5092702;28;20039;-75
2021/09/20 01:30:22;;;;;;;1.48;1.30;;;16.30;99.70;;;;;;5093903;28;20016;-73
2021/09/20 01:32:48;;;;;;;2.65;1.50;;;16.30;99.80;;;;;;5092429;28;20184;-73
2021/09/20 01:35:17;;;;;;;1.92;1.20;;;16.20;99.90;;;;;;5093495;28;20030;-73
2021/09/20 01:37:43;;;;;;;1.67;1.27;;;16.20;99.90;;;;;;5092353;28;20034;-73
2021/09/20 01:40:09;;;;;;;1.20;1.10;;;16.20;99.90;;;;;;5091811;28;20028;-73
2021/09/20 01:42:35;;;;;;;1.00;0.90;;;16.20;99.90;;;;;;5093055;28;20024;-73
2021/09/20 01:45:01;;;;;;;1.88;1.00;;;16.20;99.90;;;;;;5093777;28;20539;-74
2021/09/20 01:47:26;;;;;;;1.20;0.98;;;16.20;99.90;;;;;;5092813;28;20372;-73
2021/09/20 01:49:52;;;;;;;0.98;0.88;;;16.20;99.90;;;;;;5093147;28;20107;-75
2021/09/20 01:52:18;;;;;;;1.77;1.02;;;16.20;99.90;;;;;;5092524;28;20410;-73
2021/09/20 01:54:43;;;;;;;1.05;0.90;;;16.20;99.90;;;;;;5093073;28;20431;-75
2021/09/20 01:57:09;;;;;;;0.93;0.73;;;16.20;99.90;;;;;;5091644;28;20048;-73
2021/09/20 01:59:34;;;;;;;2.97;0.93;;;16.20;99.90;;;;;;5093352;28;20024;-73
2021/09/20 02:02:00;;;;;;;2.05;1.40;;;16.20;99.90;;;;;;5093556;28;20020;-74
2021/09/20 02:04:26;;;;;;;1.80;1.23;;;16.10;99.90;;;;;;5093866;28;20058;-75
2021/09/20 02:06:51;;;;;;;1.77;1.60;;;16.20;99.90;;;;;;5092189;28;20023;-76
2021/09/20 02:09:17;;;;;;;2.88;1.75;;;16.20;99.90;;;;;;5093875;28;20023;-75
2021/09/20 02:11:43;;;;;;;2.47;1.50;;;16.20;99.90;;;;;;5092525;28;20024;-75
2021/09/20 02:14:09;;;;;;;3.17;1.83;;;16.30;99.90;;;;;;5091534;28;20020;-74
2021/09/20 02:16:35;;;;;;;1.90;1.50;;;16.30;99.90;;;;;;5091677;28;20444;-75
2021/09/20 02:19:01;;;;;;;2.10;1.70;;;16.30;99.90;;;;;;5093340;28;20103;-75
2021/09/20 02:21:27;;;;;;;4.97;1.80;;;16.30;99.90;;;;;;5093652;28;20452;-75
2021/09/20 02:23:53;;;;;;;2.75;2.03;;;16.30;99.90;;;;;;5092836;28;20058;-74
2021/09/20 02:26:19;;;;;;;2.50;1.90;;;16.30;99.90;;;;;;5092835;28;20067;-75
2021/09/20 02:28:45;;;;;;;2.80;1.88;;;16.30;99.90;;;;;;5092277;28;20048;-75
2021/09/20 02:31:11;;;;;;;2.90;2.10;;;16.30;99.90;;;;;;5091183;28;20016;-75
2021/09/20 02:33:38;;;;;;;3.45;2.55;;;16.30;99.90;;;;;;5091093;28;20014;-74
2021/09/20 02:36:04;;;;;;;4.80;2.17;;;16.30;99.90;;;;;;5090667;28;20028;-74
2021/09/20 02:38:30;;;;;;;4.03;2.08;;;16.20;99.90;;;;;;5092825;28;20024;-75
2021/09/20 02:40:58;;;;;;;2.40;2.20;;;16.20;99.90;;;;;;5091087;28;20094;-75
2021/09/20 02:43:24;;;;;;;3.40;2.30;;;16.20;99.90;;;;;;5092032;28;20024;-75
2021/09/20 02:45:50;;;;;;;2.70;2.10;;;16.20;99.90;;;;;;5092658;28;20016;-76
2021/09/20 02:48:16;;;;;;;4.50;1.80;;;16.20;99.90;;;;;;5091764;28;20020;-75
2021/09/20 02:50:42;;;;;;;2.90;2.15;;;16.10;99.90;;;;;;5091621;28;20407;-75
2021/09/20 02:53:08;;;;;;;3.67;2.10;;;16.20;99.90;;;;;;5090637;28;20488;-74
2021/09/20 02:55:33;;;;;;;3.92;2.38;;;16.20;99.90;;;;;;5090822;28;20505;-74
2021/09/20 02:57:59;;;;;;;2.78;1.98;;;16.20;99.90;;;;;;5091776;28;20119;-74
2021/09/20 03:00:25;;;;;;;5.25;2.55;;;16.10;99.90;;;;;;5092861;28;20344;-74
2021/09/20 03:02:51;;;;;;;3.08;2.33;;;16.10;99.90;;;;;;5092072;28;20020;-74
2021/09/20 03:05:16;;;;;;;3.28;2.40;;;16.10;99.90;;;;;;5091694;28;20099;-75
2021/09/20 03:07:42;;;;;;;4.93;2.85;;;16.00;99.90;;;;;;5092929;28;20035;-75
2021/09/20 03:10:09;;;;;;;5.82;2.63;;;16.00;99.90;;;;;;5090722;28;20055;-74
2021/09/20 03:12:34;;;;;;;4.80;2.88;;;16.00;99.90;;;;;;5092414;28;20069;-74
2021/09/20 03:15:00;;;;;;;4.35;2.55;;;16.10;99.90;;;;;;5091973;28;20016;-75
2021/09/20 03:17:26;;;;;;;5.22;2.75;;;16.00;99.90;;;;;;5090692;28;20074;-73
2021/09/20 03:19:51;;;;;;;5.53;2.70;;;16.00;99.80;;;;;;5090445;28;20418;-74
2021/09/20 03:22:17;;;;;;;4.40;3.15;;;16.00;99.50;;;;;;5092832;28;20521;-74
2021/09/20 03:24:43;;;;;;;4.63;2.90;;;16.10;99.50;;;;;;5091514;28;20035;-74
2021/09/20 03:27:08;;;;;;;3.50;2.58;;;16.10;99.20;;;;;;5092028;28;20207;-75
2021/09/20 03:29:34;;;;;;;4.82;3.30;;;16.00;99.10;;;;;;5091286;28;20052;-75
2021/09/20 03:32:00;;;;;;;4.57;2.70;;;16.10;98.90;;;;;;5093600;28;20456;-75
2021/09/20 03:34:25;;;;;;;3.63;2.80;;;16.10;98.90;;;;;;5093701;28;20087;-75
2021/09/20 03:36:51;;;;;;;4.85;2.85;;;16.10;98.50;;;;;;5090909;28;20032;-76
2021/09/20 03:39:17;;;;;;;5.30;2.72;;;16.10;98.30;;;;;;5092433;28;20023;-75
2021/09/20 03:41:42;;;;;;;4.85;3.00;;;16.00;98.10;;;;;;5091382;28;20106;-75
2021/09/20 03:44:08;;;;;;;4.47;2.80;;;16.10;98.10;;;;;;5092594;28;20023;-75
2021/09/20 03:46:34;;;;;;;3.97;3.13;;;16.00;98.10;;;;;;5096496;28;20484;-74
2021/09/20 03:49:00;;;;;;;5.32;3.42;;;16.00;98.10;;;;;;5096601;28;20456;-75
2021/09/20 03:51:26;;;;;;;5.75;3.58;;;15.90;98.30;;;;;;5096606;28;20024;-75
2021/09/20 03:53:51;;;;;;;6.68;2.65;;;15.90;98.80;;;;;;5094852;28;20073;-76
2021/09/20 03:56:17;;;;;;;6.10;3.08;;;15.80;98.60;;;;;;5096962;28;20115;-75
2021/09/20 03:58:42;;;;;;;5.63;3.10;;;15.80;98.70;;;;;;5096772;28;20024;-75
2021/09/20 04:01:08;;;;;;;4.57;3.10;;;15.70;98.60;;;;;;5095358;28;20020;-75
2021/09/20 04:03:34;;;;;;;4.90;3.22;;;15.70;98.80;;;;;;5095885;28;20462;-76
2021/09/20 04:05:59;;;;;;;5.38;3.28;;;15.70;98.70;;;;;;5095403;28;20487;-75
2021/09/20 04:08:28;;;;;;;6.95;3.33;;;15.70;98.50;;;;;;5095870;28;20112;-75
2021/09/20 04:10:56;;;;;;;5.07;3.17;;;15.70;98.50;;;;;;5096319;28;20027;-75
2021/09/20 04:13:21;;;;;;;5.38;3.42;;;15.60;98.30;;;;;;5095529;28;20024;-75
2021/09/20 04:15:48;;;;;;;4.43;2.80;;;15.70;98.30;;;;;;5096567;28;20041;-75
2021/09/20 04:18:14;;;;;;;3.95;3.00;;;15.70;98.20;;;;;;5096052;28;20016;-75
2021/09/20 04:20:40;;;;;;;4.53;2.85;;;15.60;98.40;;;;;;5096837;28;20099;-75
2021/09/20 04:23:05;;;;;;;6.82;3.10;;;15.60;98.20;;;;;;5094525;28;20020;-75
2021/09/20 04:25:31;;;;;;;5.45;3.00;;;15.60;98.00;;;;;;5094718;28;20020;-75
2021/09/20 04:27:57;;;;;;;4.57;3.05;;;15.70;97.70;;;;;;5094692;28;20065;-76
2021/09/20 04:30:22;;;;;;;4.07;2.67;;;15.60;97.70;;;;;;5096687;28;20016;-75
2021/09/20 04:32:48;;;;;;;4.35;2.95;;;15.60;97.70;;;;;;5095310;28;20031;-75
2021/09/20 04:35:14;;;;;;;4.57;3.25;;;15.60;97.40;;;;;;5094578;28;20027;-75
2021/09/20 04:37:40;;;;;;;6.72;3.47;;;15.70;97.30;;;;;;5094868;28;20032;-75
2021/09/20 04:40:07;;;;;;;6.60;3.75;;;15.70;97.60;;;;;;5095408;28;20466;-75
2021/09/20 04:42:32;;;;;;;4.72;3.60;;;15.70;97.80;;;;;;5094711;28;20115;-75
2021/09/20 04:44:58;;;;;;;5.95;3.58;;;15.70;97.40;;;;;;5095344;28;20465;-75
2021/09/20 04:47:23;;;;;;;6.10;3.58;;;15.60;97.90;;;;;;5090641;28;20032;-76
2021/09/20 04:49:49;;;;;;;10.85;3.33;;;15.60;98.00;;;;;;5091389;28;20111;-75
2021/09/20 04:52:15;;;;;;;6.85;3.60;;;15.60;98.30;;;;;;5094089;28;20024;-75
2021/09/20 04:54:40;;;;;;;5.43;3.38;;;15.60;97.80;;;;;;5093408;28;20197;-75
2021/09/20 04:57:06;;;;;;;6.72;3.35;;;15.50;97.30;;;;;;5091933;28;20036;-75
2021/09/20 04:59:32;;;;;;;5.68;3.50;;;15.50;97.40;;;;;;5094302;28;20024;-75
2021/09/20 05:01:57;;;;;;;6.13;3.88;;;15.50;97.80;;;;;;5093946;28;20527;-76
2021/09/20 05:04:23;;;;;;;5.30;3.65;;;15.50;97.60;;;;;;5095583;28;20385;-76
2021/09/20 05:06:48;;;;;;;5.97;3.88;;;15.50;97.30;;;;;;5095288;28;20024;-75
2021/09/20 05:09:14;;;;;;;8.13;3.67;;;15.50;97.10;;;;;;5093690;28;20024;-75
2021/09/20 05:11:40;;;;;;;5.28;3.67;;;15.50;97.70;;;;;;5095504;28;20102;-75
2021/09/20 05:14:05;;;;;;;5.15;3.17;;;15.50;97.60;;;;;;5093393;28;20028;-75
2021/09/20 05:16:32;;;;;;;6.57;3.67;;;15.50;97.50;;;;;;5094860;28;20037;-75
2021/09/20 05:18:57;;;;;;;8.52;4.22;;;15.60;97.60;;;;;;5092934;28;20531;-75
2021/09/20 05:21:24;;;;;;;6.57;3.72;;;15.60;97.60;;;;;;5093668;28;20024;-75
2021/09/20 05:23:50;;;;;;;4.97;3.65;;;15.60;97.60;;;;;;5093595;28;20118;-75
2021/09/20 05:26:17;;;;;;;6.38;3.92;;;15.60;97.70;;;;;;5092938;28;20144;-75
2021/09/20 05:28:43;;;;;;;7.72;3.72;;;15.50;97.80;;;;;;5093682;28;20023;-75
2021/09/20 05:31:09;;;;;;;5.03;3.80;;;15.50;97.40;;;;;;5094152;28;20085;-76
2021/09/20 05:33:35;;;;;;;6.60;3.80;;;15.50;97.60;;;;;;5094918;28;20368;-75
2021/09/20 05:36:06;;;;;;;7.72;3.55;;;15.50;97.00;;;;;;5093045;28;20024;-75
2021/09/20 05:38:32;;;;;;;5.15;3.70;;;15.50;96.70;;;;;;5093844;28;20024;-75
2021/09/20 05:40:58;;;;;;;5.22;3.67;;;15.40;96.60;;;;;;5094307;28;20408;-75
2021/09/20 05:43:25;;;;;;;7.63;3.70;;;15.50;96.50;;;;;;5094391;28;20024;-75
2021/09/20 05:45:50;;;;;;;6.70;3.80;;;15.50;96.40;;;;;;5093488;28;20024;-75
2021/09/20 05:48:16;;;;;;;5.55;3.60;;;15.50;96.50;;;;;;5092863;28;20032;-75
2021/09/20 05:50:43;;;;;;;8.60;4.03;;;15.60;96.80;;;;;;5092938;28;20067;-75
2021/09/20 05:53:08;;;;;;;7.88;4.18;;;15.60;97.00;;;;;;5092779;28;20027;-76
2021/09/20 05:55:34;;;;;;;6.50;3.97;;;15.50;97.10;;;;;;5092907;28;20503;-75
2021/09/20 05:58:01;;;;;;;5.70;4.07;;;15.50;96.30;;;;;;5093582;28;20043;-76
2021/09/20 06:00:27;;;;;;;7.60;3.97;;;15.50;96.90;;;;;;5094772;28;20024;-75
2021/09/20 06:02:53;;;;;;;7.70;3.75;;;15.60;97.20;;;;;;5092979;28;20032;-75
2021/09/20 06:05:19;;;;;;;6.47;3.72;;;15.60;97.60;;;;;;5092416;28;20519;-75
2021/09/20 06:07:45;;;;;;;8.43;3.85;;;15.60;97.30;;;;;;5092937;28;20028;-75
2021/09/20 06:10:12;;;;;;;7.25;3.25;;;15.60;97.00;;;;;;5092585;28;20028;-75
2021/09/20 06:12:38;;;;;;;8.15;4.15;;;15.60;97.00;;;;;;5092852;28;20380;-75
2021/09/20 06:15:08;;;;;;;7.10;3.72;;;15.60;97.30;;;;;;5092331;28;20477;-75
2021/09/20 06:17:33;;;;;;;7.93;4.00;;;15.60;96.50;;;;;;5093623;28;20028;-75
2021/09/20 06:19:59;;;;;;;6.78;3.70;;;15.50;96.60;;;;;;5092586;28;20122;-77
2021/09/20 06:22:25;;;;;;;5.07;3.70;;;15.60;96.60;;;;;;5093052;28;20035;-75
2021/09/20 06:24:51;;;;;;;11.43;4.00;;;15.60;96.90;;;;;;5092631;28;20028;-75
2021/09/20 06:27:16;;;;;;;9.45;4.07;;;15.70;96.90;;;;;;5091929;28;20082;-76
2021/09/20 06:29:42;;;;;;;7.55;3.90;;;15.60;97.00;;;;;;5093957;28;20036;-75
2021/09/20 06:32:08;;;;;;;5.82;3.58;;;15.70;97.00;;;;;;5093401;28;20163;-76
2021/09/20 06:34:35;;;;;;;7.78;4.10;;;15.70;96.90;;;;;;5092698;28;20030;-75
2021/09/20 06:37:03;;;;;;;5.95;3.92;;;15.70;97.00;;;;;;5091993;28;20028;-77
2021/09/20 06:39:29;;;;;;;5.32;4.10;;;15.70;96.70;;;;;;5092602;28;20035;-75
2021/09/20 06:41:54;;;;;;;6.75;3.97;;;15.80;96.80;;;;;;5093755;28;20028;-75
2021/09/20 06:44:20;;;;;;;6.88;3.78;;;15.80;96.70;;;;;;5091839;28;20332;-75
2021/09/20 06:46:46;;;;;;;5.55;3.90;;;15.70;96.60;;;;;;5093594;28;20461;-75
2021/09/20 06:49:14;;;;;;;6.88;3.90;;;15.70;96.80;;;;;;5092714;28;20024;-76
2021/09/20 06:51:40;;;;;;;5.93;3.80;;;15.70;96.90;;;;;;5092213;28;20024;-75
2021/09/20 06:54:06;;;;;;;6.07;4.07;;;15.70;96.70;;;;;;5092192;28;20058;-76
2021/09/20 06:56:42;;;;;;;6.45;4.25;;;15.80;97.00;;;;;;5093161;28;20043;-75
2021/09/20 06:59:08;;;;;;;8.80;3.90;;;15.80;96.90;;;;;;5091716;28;20055;-76
2021/09/20 07:01:36;;;;;;;5.35;3.80;;;15.90;96.60;;;;;;5091790;28;20085;-75
2021/09/20 07:04:02;;;;;;;5.70;3.78;;;15.90;96.00;;;;;;5091668;28;20032;-76
2021/09/20 07:06:30;;;;;;;5.43;4.07;;;15.90;96.10;;;;;;5091625;28;20034;-76
2021/09/20 07:09:01;;;;;;;5.32;3.95;;;16.00;96.10;;;;;;5093208;28;20040;-75
2021/09/20 07:11:27;;;;;;;5.82;4.00;;;16.00;95.80;;;;;;5093304;28;20111;-75
2021/09/20 07:13:52;;;;;;;7.47;4.15;;;16.10;95.80;;;;;;5092103;28;20036;-75
2021/09/20 07:16:18;;;;;;;6.63;3.80;;;16.10;95.80;;;;;;5091812;28;20043;-76
2021/09/20 07:18:44;;;;;;;6.50;4.00;;;16.20;96.10;;;;;;5093390;28;20373;-76
2021/09/20 07:21:10;;;;;;;7.65;3.85;;;16.10;96.40;;;;;;5091073;28;20024;-76
2021/09/20 07:23:36;;;;;;;5.80;4.03;;;16.20;96.00;;;;;;5093136;28;20021;-76
2021/09/20 07:26:02;;;;;;;6.47;4.13;;;16.20;95.60;;;;;;5092073;28;20024;-75
2021/09/20 07:28:28;;;;;;;7.25;4.63;;;16.20;95.70;;;;;;5092635;28;20065;-75
2021/09/20 07:30:54;;;;;;;5.80;4.35;;;16.30;95.20;;;;;;5092275;28;20520;-75
2021/09/20 07:33:19;;;;;;;9.30;3.97;;;16.30;95.20;;;;;;5091141;28;20029;-75
2021/09/20 07:35:45;;;;;;;9.23;4.53;;;16.40;95.00;;;;;;5091794;28;20453;-75
2021/09/20 07:38:11;;;;;;;6.85;3.78;;;16.40;95.00;;;;;;5090985;28;20063;-75
2021/09/20 07:40:37;;;;;;;6.03;4.10;;;16.40;95.10;;;;;;5091729;28;20119;-75
2021/09/20 07:43:04;;;;;;;9.05;4.20;;;16.50;95.30;;;;;;5091751;28;20556;-75
2021/09/20 07:45:31;;;;;;;6.57;4.15;;;16.50;95.00;;;;;;5091877;28;20028;-75
2021/09/20 07:47:57;;;;;;;7.35;4.45;;;16.60;94.60;;;;;;5091597;28;20552;-75
2021/09/20 07:50:23;;;;;;;7.13;3.83;;;16.60;94.20;;;;;;5090824;28;20047;-75
2021/09/20 07:52:49;;;;;;;7.60;4.45;;;16.60;94.20;;;;;;5075834;28;20040;-75
2021/09/20 07:55:16;;;;;;;8.35;4.53;;;16.60;94.10;;;;;;5091767;28;20480;-76
2021/09/20 07:57:43;;;;;;;7.03;4.70;;;16.60;94.30;;;;;;5092187;28;20036;-76
2021/09/20 08:00:11;;;;;;;7.90;4.45;;;16.60;94.10;;;;;;5099178;28;20043;-76
2021/09/20 08:02:37;;;;;;;7.88;4.47;;;16.70;94.30;;;;;;5091156;28;20445;-76
2021/09/20 08:05:03;;;;;;;9.88;4.75;;;16.70;94.70;;;;;;5090181;28;20031;-76
2021/09/20 08:07:29;;;;;;;9.55;4.88;;;16.70;95.20;;;;;;5090968;28;20057;-77
2021/09/20 08:09:54;;;;;;;8.73;4.95;;;16.80;95.20;;;;;;5091408;28;20016;-77
2021/09/20 08:12:20;;;;;;;7.45;4.72;;;16.80;95.10;;;;;;5092774;28;20030;-77
2021/09/20 08:14:46;;;;;;;6.90;4.65;;;16.90;94.40;;;;;;5094062;28;20107;-77
2021/09/20 08:17:12;;;;;;;8.25;4.72;;;16.90;94.10;;;;;;5092480;28;20094;-78
2021/09/20 08:19:38;;;;;;;10.20;5.60;;;16.90;94.30;;;;;;5092093;28;20035;-76
2021/09/20 08:22:05;;;;;;;9.82;5.50;;;16.90;94.50;;;;;;5093018;28;20027;-76
2021/09/20 08:24:31;;;;;;;9.38;5.00;;;17.00;95.00;;;;;;5092496;28;20024;-76
2021/09/20 08:26:57;;;;;;;9.00;5.22;;;17.10;94.90;;;;;;5091828;28;20032;-76
2021/09/20 08:29:23;;;;;;;8.38;5.35;;;17.10;94.90;;;;;;5092610;28;20420;-76
2021/09/20 08:31:49;;;;;;;13.13;5.30;;;17.10;94.60;;;;;;5093261;28;20117;-77
2021/09/20 08:34:15;;;;;;;9.63;5.85;;;17.20;94.10;;;;;;5085230;28;20028;-76
2021/09/20 08:36:41;;;;;;;7.47;4.72;;;17.10;93.90;;;;;;5092084;28;20123;-76
2021/09/20 08:39:07;;;;;;;8.85;5.45;;;17.20;94.00;;;;;;5095951;28;20452;-77
2021/09/20 08:41:33;;;;;;;8.90;5.10;;;17.30;94.10;;;;;;5096071;28;20028;-76
2021/09/20 08:43:58;;;;;;;11.38;5.15;;;17.30;94.40;;;;;;5094513;28;20521;-76
2021/09/20 08:46:25;;;;;;;8.82;5.93;;;17.40;94.30;;;;;;5096005;28;20032;-77
2021/09/20 08:48:52;;;;;;;9.27;5.30;;;17.40;93.80;;;;;;5089580;28;20043;-76
2021/09/20 08:51:19;;;;;;;9.20;5.60;;;17.50;94.00;;;;;;5088234;28;20035;-77
2021/09/20 08:53:47;;;;;;;9.30;5.25;;;17.60;93.60;;;;;;5095014;28;20158;-76
2021/09/20 08:56:13;;;;;;;10.68;5.68;;;17.70;93.50;;;;;;5084591;28;20040;-77
2021/09/20 08:58:39;;;;;;;12.57;5.90;;;17.70;93.60;;;;;;5081670;28;20037;-78
2021/09/20 09:01:05;;;;;;;10.52;5.35;;;17.70;93.30;;;;;;5095917;28;20055;-77
2021/09/20 09:03:32;;;;;;;10.45;5.97;;;17.70;93.50;;;;;;5105171;28;20015;-77
2021/09/20 09:05:58;;;;;;;12.05;6.20;;;17.80;93.10;;;;;;5106279;28;20028;-77
2021/09/20 09:08:35;;;;;;;10.07;5.82;;;17.80;92.70;;;;;;5096414;28;20078;-77
2021/09/20 09:11:14;;;;;;;9.82;5.65;;;17.70;92.80;;;;;;5093912;28;20050;-76
2021/09/20 09:13:46;;;;;;;9.48;5.57;;;17.80;93.00;;;;;;5114885;27;20082;-77
2021/09/20 09:16:12;;;;;;;7.85;5.53;;;17.80;92.90;;;;;;5099354;28;20026;-77
2021/09/20 09:18:59;;;;;;;8.20;5.28;;;17.90;93.40;;;;;;5094491;28;20020;-77
2021/09/20 09:21:29;;;;;;;8.63;5.30;;;17.90;93.40;;;;;;5094033;28;20111;-77
2021/09/20 09:24:20;;;;;;;8.82;5.40;;;17.90;92.80;;;;;;5101439;28;20449;-77
2021/09/20 09:26:54;;;;;;;9.27;6.28;;;17.80;92.80;;;;;;5106693;28;20032;-77
2021/09/20 09:29:20;;;;;;;10.27;5.88;;;17.90;92.40;;;;;;5093071;28;20036;-76
2021/09/20 09:31:55;;;;;;;7.70;5.18;;;17.80;92.30;;;;;;5094779;28;20040;-76
2021/09/20 09:34:24;;;;;;;8.68;5.55;;;17.90;92.70;;;;;;5100873;28;20035;-77
2021/09/20 09:36:50;;;;;;;11.60;5.95;;;18.00;92.80;;;;;;5100741;28;20058;-77
2021/09/20 09:39:30;;;;;;;8.50;5.88;;;18.00;92.60;;;;;;5093294;28;20028;-77
2021/09/20 09:41:56;;;;;;;9.18;5.47;;;18.20;92.50;;;;;;5094494;28;20115;-77
2021/09/20 09:44:28;;;;;;;9.40;5.45;;;18.20;91.70;;;;;;5094977;28;20054;-77
2021/09/20 09:46:54;;;;;;;8.38;5.57;;;18.30;91.70;;;;;;5088849;28;20024;-77
2021/09/20 09:49:22;;;;;;;9.38;5.90;;;18.30;91.80;;;;;;5096278;28;20384;-77
2021/09/20 09:51:57;;;;;;;12.27;6.22;;;18.30;91.40;;;;;;5096816;28;20051;-76
2021/09/20 09:54:30;;;;;;;11.52;6.10;;;18.20;91.10;;;;;;5113209;28;20055;-77
2021/09/20 09:57:22;;;;;;;8.25;5.88;;;18.10;91.20;;;;;;5095759;28;20119;-76
2021/09/20 09:59:59;;;;;;;9.32;5.68;;;18.20;91.30;;;;;;5093835;28;20036;-77
2021/09/20 10:02:30;;;;;;;12.70;5.75;;;18.10;91.40;;;;;;5125149;27;20028;-77
2021/09/20 10:05:05;;;;;;;8.73;6.03;;;18.10;91.70;;;;;;5090127;28;20518;-77
2021/09/20 10:07:33;;;;;;;10.18;6.38;;;18.00;91.50;;;;;;5088766;28;20104;-75
2021/09/20 10:10:02;;;;;;;11.35;6.80;;;18.00;91.50;;;;;;5093484;28;20081;-74
2021/09/20 10:12:29;;;;;;;10.43;6.00;;;18.00;91.80;;;;;;5095815;28;20027;-75
2021/09/20 10:14:57;;;;;;;11.85;6.80;;;17.90;91.80;;;;;;5137976;27;20077;-75
2021/09/20 10:17:24;;;;;;;12.55;6.72;;;17.90;91.60;;;;;;5091955;28;20032;-75
2021/09/20 10:19:50;;;;;;;12.20;7.20;;;17.90;91.70;;;;;;5092502;28;20074;-76
2021/09/20 10:22:18;;;;;;;12.30;6.63;;;17.80;91.70;;;;;;5092162;28;20024;-76
2021/09/20 10:24:47;;;;;;;16.30;7.30;;;17.80;92.10;;;;;;5091429;28;20063;-75
2021/09/20 10:27:15;;;;;;;10.63;6.53;;;17.80;91.50;;;;;;5091583;28;20465;-75
2021/09/20 10:29:46;;;;;;;13.85;7.28;;;17.70;91.30;;;;;;5092138;28;20020;-79
2021/09/20 10:32:13;;;;;;;12.27;7.07;;;17.70;91.70;;;;;;5092521;28;20031;-75
2021/09/20 10:34:40;;;;;;;12.27;7.30;;;17.60;91.80;;;;;;5097185;28;20489;-75
2021/09/20 10:37:12;;;;;;;11.10;6.70;;;17.70;91.80;;;;;;5123034;27;20086;-75
2021/09/20 10:39:42;;;;;;;;;;;17.70;92.10;;;;;;5095254;28;20032;-74
2021/09/20 10:42:10;;;;;;;11.45;6.53;;;17.70;91.80;;;;;;5093954;28;19911;-75
2021/09/20 10:44:40;;;;;;;12.57;6.53;;;17.70;91.90;;;;;;5110855;28;20028;-75
2021/09/20 10:47:14;;;;;;;10.93;6.63;;;17.70;91.50;;;;;;5100099;28;20028;-75
2021/09/20 10:49:48;;;;;;;12.13;6.15;;;17.70;91.40;;;;;;5091122;28;20038;-75
2021/09/20 10:52:15;;;;;;;11.90;6.72;;;17.80;91.40;;;;;;5077395;28;20028;-76
2021/09/20 10:55:04;;;;;;;11.40;6.47;;;17.90;91.70;;;;;;5093144;28;20064;-76
2021/09/20 10:57:30;;;;;;;11.20;6.05;;;17.90;90.80;;;;;;5090199;28;20028;-76
2021/09/20 11:00:21;;;;;;;10.95;5.78;;;18.00;91.40;;;;;;5091974;28;20039;-77
2021/09/20 11:02:47;;;;;;;12.02;6.18;;;18.20;91.50;;;;;;5110436;28;20032;-74
2021/09/20 11:05:13;;;;;;;10.68;5.88;;;18.20;91.20;;;;;;5098302;28;20093;-75
2021/09/20 11:07:49;;;;;;;10.43;5.53;;;18.40;91.10;;;;;;5096818;28;20505;-78
2021/09/20 11:10:17;;;;;;;8.43;5.68;;;18.40;90.50;;;;;;5091975;28;20020;-77
2021/09/20 11:13:06;;;;;;;8.65;5.57;;;18.40;90.10;;;;;;5094888;28;20177;-74
2021/09/20 11:15:43;;;;;;;9.13;5.63;;;18.60;89.80;;;;;;5110052;28;20054;-74
2021/09/20 11:18:29;;;;;;;7.93;5.25;;;18.70;89.40;;;;;;5096546;28;20044;-74
2021/09/20 11:21:06;;;;;;;7.32;4.80;;;18.70;88.90;;;;;;5100026;28;20028;-74
2021/09/20 11:23:39;;;;;;;7.82;5.55;;;18.80;88.20;;;;;;5101410;28;20016;-74
2021/09/20 11:26:06;;;;;;;10.00;5.07;;;18.90;88.00;;;;;;5127527;27;20119;-74
2021/09/20 11:28:34;;;;;;;7.85;4.70;;;19.00;89.40;;;;;;5107820;28;20028;-74
2021/09/20 11:31:00;;;;;;;9.68;5.65;;;19.00;87.50;;;;;;5088223;28;20028;-74
2021/09/20 11:33:44;;;;;;;6.93;5.03;;;19.10;87.70;;;;;;5096397;28;20378;-74
2021/09/20 11:36:28;;;;;;;7.05;5.05;;;19.20;88.00;;;;;;5084229;28;20028;-75
2021/09/20 11:39:10;;;;;;;6.70;4.82;;;19.20;87.60;;;;;;5092889;28;20051;-74
2021/09/20 11:41:36;;;;;;;8.07;5.13;;;19.30;88.10;;;;;;5101028;28;20031;-74
2021/09/20 11:44:02;;;;;;;7.18;5.38;;;19.40;88.20;;;;;;5092160;28;20036;-73
2021/09/20 11:46:27;;;;;;;7.00;4.88;;;19.40;86.90;;;;;;5140053;27;20464;-74
2021/09/20 11:49:01;;;;;;;8.70;5.38;;;19.50;87.70;;;;;;5094093;28;20473;-74
2021/09/20 11:51:28;;;;;;;6.43;4.68;;;19.60;86.80;;;;;;5111301;28;20028;-74
2021/09/20 11:53:53;;;;;;;7.03;5.07;;;19.60;85.80;;;;;;5111737;28;20092;-74
2021/09/20 11:56:24;;;;;;;6.63;4.45;;;19.70;84.90;;;;;;5096344;28;20052;-75
2021/09/20 11:58:54;;;;;;;8.13;4.73;;;19.60;85.50;;;;;;5108316;28;20081;-74
2021/09/20 12:01:22;;;;;;;6.32;4.55;;;19.70;84.30;;;;;;5097242;28;20023;-75
2021/09/20 12:03:53;;;;;;;5.88;4.55;;;19.70;85.00;;;;;;5111629;28;20032;-74
2021/09/20 12:06:25;;;;;;;5.70;4.35;;;19.70;84.40;;;;;;5083209;28;20036;-74
2021/09/20 12:08:51;;;;;;;6.68;4.60;;;19.70;84.50;;;;;;5109928;28;20031;-74
2021/09/20 12:11:27;;;;;;;6.30;4.28;;;19.80;83.60;;;;;;5101579;28;20510;-74
2021/09/20 12:13:54;;;;;;;5.55;4.32;;;19.90;83.60;;;;;;5107998;28;20460;-73
2021/09/20 12:16:20;;;;;;;7.60;4.40;;;20.00;85.10;;;;;;5097759;28;20070;-74
2021/09/20 12:18:46;;;;;;;6.88;4.57;;;20.10;83.80;;;;;;5101930;28;20108;-74
2021/09/20 12:21:14;;;;;;;5.35;4.40;;;20.10;83.00;;;;;;5109519;28;20070;-73
2021/09/20 12:23:49;;;;;;;5.97;4.25;;;20.30;83.60;;;;;;5095572;28;20028;-74
2021/09/20 12:26:20;;;;;;;5.72;4.50;;;20.40;81.80;;;;;;5107242;28;20024;-74
2021/09/20 12:28:57;;;;;;;7.53;4.05;;;20.40;83.10;;;;;;5100531;28;20031;-73
2021/09/20 12:31:39;;;;;;;6.20;4.35;;;20.50;83.70;;;;;;5096909;28;20548;-75
2021/09/20 12:34:16;;;;;;;7.32;4.43;;;20.60;81.80;;;;;;5094786;28;20553;-73
2021/09/20 12:36:52;;;;;;;6.53;4.38;;;20.50;81.40;;;;;;5093690;28;20400;-74
2021/09/20 12:39:32;;;;;;;7.70;4.35;;;20.60;81.90;;;;;;5094237;28;20036;-74
2021/09/20 12:41:59;;;;;;;6.90;4.55;;;20.60;82.40;;;;;;5097876;28;20492;-74
2021/09/20 12:44:40;;;;;;;7.90;4.40;;;20.90;80.90;;;;;;5095443;28;20020;-74
2021/09/20 12:47:13;;;;;;;5.80;4.40;;;20.80;79.60;;;;;;5103619;28;20036;-74